Terminal Aerodrome Forecast
Issued by NWS

Home | Current Version | Previous Version | Text Only | Print | Product List | Glossary Off
Versions: 1 2 3 4 5 6 7 8 9 10 11 12 13 14 15

000
FTUS42 KTBW 182327
TAFRSW
TAF
KRSW 182327Z 1900/1924 VRB04KT P6SM FEW050 SCT250
     FM190400 00000KT P6SM SCT250
     FM190900 VRB03KT 4SM BR SCT250
     FM191400 15005KT P6SM SCT030 SCT250
     FM191800 23008KT P6SM SCT040 SCT250=

USA.gov is the U.S. government's official web portal to all federal, state and local government web resources and services.